Time;durP1;ratioP1;P1;durP2;ratioP2;P2;SDS_P1;SDS_P2;PMS_P1;PMS_P2;Temp;Humidity;BMP_temperature;BMP_pressure;BME280_temperature;BME280_humidity;BME280_pressure;Samples;Min_cycle;Max_cycle;Signal;HPM_P1;HPM_P2
2021/11/15 00:03:29;;;;;;;0.00;0.00;;;;;;;-145.06;100.00;63404.56;10495294;28;20421;-67
2021/11/15 00:08:29;;;;;;;0.00;0.00;;;;;;;-145.06;100.00;63404.56;10494946;28;20016;-67
2021/11/15 00:13:29;;;;;;;0.00;0.00;;;;;;;-145.06;100.00;63404.56;10495137;28;20032;-66
2021/11/15 00:18:30;;;;;;;0.00;0.00;;;;;;;-145.06;100.00;63404.56;10494762;28;20016;-67
2021/11/15 00:23:30;;;;;;;0.00;0.00;;;;;;;-145.06;100.00;63404.56;10486731;28;20017;-66
2021/11/15 00:28:31;;;;;;;0.00;0.00;;;;;;;-145.06;100.00;63404.56;10494412;28;20137;-66
2021/11/15 00:33:31;;;;;;;0.00;0.00;;;;;;;-145.06;100.00;63404.56;10493775;28;20028;-66
2021/11/15 00:38:31;;;;;;;0.00;0.00;;;;;;;-145.06;100.00;63404.56;10494462;28;20020;-67
2021/11/15 00:43:32;;;;;;;0.00;0.00;;;;;;;-145.06;100.00;63404.56;10492672;28;20040;-66
2021/11/15 00:48:32;;;;;;;0.00;0.00;;;;;;;-145.06;100.00;63404.56;10493773;28;20035;-66
2021/11/15 00:53:33;;;;;;;0.00;0.00;;;;;;;-145.06;100.00;63404.56;10486739;28;20410;-66
2021/11/15 00:58:33;;;;;;;0.00;0.00;;;;;;;-145.06;100.00;63404.56;10492196;28;20502;-66
2021/11/15 01:03:34;;;;;;;0.00;0.00;;;;;;;-145.06;100.00;63404.56;10492854;28;20732;-66
2021/11/15 01:08:34;;;;;;;0.00;0.00;;;;;;;-145.06;100.00;63404.56;10491160;28;20048;-66
2021/11/15 01:13:35;;;;;;;0.00;0.00;;;;;;;-145.06;100.00;63404.56;10491348;28;20030;-66
2021/11/15 01:18:41;;;;;;;0.00;0.00;;;;;;;-145.06;100.00;63404.56;10492329;28;20019;-66
2021/11/15 01:23:41;;;;;;;0.00;0.00;;;;;;;-145.06;100.00;63404.56;10482980;28;20047;-66
2021/11/15 01:28:42;;;;;;;0.00;0.00;;;;;;;-145.06;100.00;63404.56;10492011;28;20020;-66
2021/11/15 01:33:43;;;;;;;0.00;0.00;;;;;;;-145.06;100.00;63404.56;10491756;28;20379;-66
2021/11/15 01:38:44;;;;;;;0.00;0.00;;;;;;;-145.06;100.00;63404.56;10490504;28;20031;-66
2021/11/15 01:43:44;;;;;;;0.00;0.00;;;;;;;-145.06;100.00;63404.56;10491057;28;20467;-66
2021/11/15 01:48:45;;;;;;;0.00;0.00;;;;;;;-145.06;100.00;63404.56;10486154;28;20024;-66
2021/11/15 01:53:48;;;;;;;0.00;0.00;;;;;;;-145.06;100.00;63404.56;10481596;28;20352;-66
2021/11/15 01:58:48;;;;;;;0.00;0.00;;;;;;;-145.06;100.00;63404.56;10490000;28;20566;-66
2021/11/15 02:03:49;;;;;;;0.00;0.00;;;;;;;-145.06;100.00;63404.56;10490716;28;20099;-66
2021/11/15 02:08:49;;;;;;;0.00;0.00;;;;;;;-145.06;100.00;63404.56;10486626;28;20022;-66
2021/11/15 02:13:50;;;;;;;0.00;0.00;;;;;;;-145.06;100.00;63404.56;10488951;28;20025;-66
2021/11/15 02:18:52;;;;;;;0.00;0.00;;;;;;;-145.06;100.00;63404.56;10490379;28;20016;-66
2021/11/15 02:23:53;;;;;;;0.00;0.00;;;;;;;-145.06;100.00;63404.56;10482951;28;20118;-66
2021/11/15 02:28:53;;;;;;;0.00;0.00;;;;;;;-145.06;100.00;63404.56;10490483;28;20021;-66
2021/11/15 02:33:57;;;;;;;0.00;0.00;;;;;;;-145.06;100.00;63404.56;10489851;28;20183;-66
2021/11/15 02:38:58;;;;;;;0.00;0.00;;;;;;;-145.06;100.00;63404.56;10490523;28;20108;-66
2021/11/15 02:44:02;;;;;;;0.00;0.00;;;;;;;-145.06;100.00;63404.56;10488188;28;20073;-66
2021/11/15 02:49:04;;;;;;;0.00;0.00;;;;;;;-145.06;100.00;63404.56;10488679;28;20139;-66
2021/11/15 02:54:04;;;;;;;0.00;0.00;;;;;;;-145.06;100.00;63404.56;10480935;28;20026;-66
2021/11/15 02:59:05;;;;;;;0.00;0.00;;;;;;;-145.06;100.00;63404.56;10488551;28;20035;-66
2021/11/15 03:04:05;;;;;;;0.00;0.00;;;;;;;-145.06;100.00;63404.56;10489283;28;20028;-66
2021/11/15 03:09:06;;;;;;;0.00;0.00;;;;;;;-145.06;100.00;63404.56;10489135;28;20567;-66
2021/11/15 03:14:07;;;;;;;0.00;0.00;;;;;;;-145.06;100.00;63404.56;10489606;28;20411;-66
2021/11/15 03:19:07;;;;;;;0.00;0.00;;;;;;;-145.06;100.00;63404.56;10489266;28;20024;-66
2021/11/15 03:24:09;;;;;;;0.00;0.00;;;;;;;-145.06;100.00;63404.56;10486068;28;20476;-66
2021/11/15 03:29:09;;;;;;;0.00;0.00;;;;;;;-145.06;100.00;63404.56;10496882;28;20322;-66
2021/11/15 03:34:13;;;;;;;0.00;0.00;;;;;;;-145.06;100.00;63404.56;10496111;28;20459;-66
2021/11/15 03:39:13;;;;;;;0.00;0.00;;;;;;;-145.06;100.00;63404.56;10495150;28;20017;-66
2021/11/15 03:44:14;;;;;;;0.00;0.00;;;;;;;-145.06;100.00;63404.56;10496611;28;20443;-66
2021/11/15 03:49:15;;;;;;;0.00;0.00;;;;;;;-145.06;100.00;63404.56;10496100;28;20365;-66
2021/11/15 03:54:16;;;;;;;0.00;0.00;;;;;;;-145.06;100.00;63404.56;10486274;28;20051;-66
2021/11/15 03:59:16;;;;;;;0.00;0.00;;;;;;;-145.06;100.00;63404.56;10486119;28;20433;-66
2021/11/15 04:04:18;;;;;;;0.00;0.00;;;;;;;-145.06;100.00;63404.56;10482773;28;20028;-66
2021/11/15 04:09:18;;;;;;;0.00;0.00;;;;;;;-145.06;100.00;63404.56;10489739;28;20031;-66
2021/11/15 04:14:18;;;;;;;0.00;0.00;;;;;;;-145.06;100.00;63404.56;10495825;28;20031;-66
2021/11/15 04:19:19;;;;;;;0.00;0.00;;;;;;;-145.06;100.00;63404.56;10492807;28;20480;-66
2021/11/15 04:24:19;;;;;;;0.00;0.00;;;;;;;-145.06;100.00;63404.56;10483169;28;20132;-66
2021/11/15 04:29:20;;;;;;;0.00;0.00;;;;;;;-145.06;100.00;63404.56;10495220;28;20017;-66
2021/11/15 04:34:20;;;;;;;0.00;0.00;;;;;;;-145.06;100.00;63404.56;10493788;28;20278;-66
2021/11/15 04:39:21;;;;;;;0.00;0.00;;;;;;;-145.06;100.00;63404.56;10494507;28;20349;-66
2021/11/15 04:44:21;;;;;;;0.00;0.00;;;;;;;-145.06;100.00;63404.56;10493651;28;20475;-70
2021/11/15 04:49:22;;;;;;;0.00;0.00;;;;;;;-145.06;100.00;63404.56;10490195;28;20078;-66
2021/11/15 04:54:22;;;;;;;0.00;0.00;;;;;;;-145.06;100.00;63404.56;10479029;28;20108;-66
2021/11/15 04:59:23;;;;;;;0.00;0.00;;;;;;;-145.06;100.00;63404.56;10494233;28;20091;-66
2021/11/15 05:04:23;;;;;;;0.00;0.00;;;;;;;-145.06;100.00;63404.56;10493532;28;20086;-66
2021/11/15 05:09:24;;;;;;;0.00;0.00;;;;;;;-145.06;100.00;63404.56;10461035;28;20108;-66
2021/11/15 05:14:24;;;;;;;0.08;0.08;;;;;;;-145.06;100.00;63404.56;10469791;28;20031;-66
2021/11/15 05:19:24;;;;;;;0.00;0.00;;;;;;;-145.06;100.00;63404.56;10480201;28;20688;-66
2021/11/15 05:24:24;;;;;;;0.00;0.00;;;;;;;-145.06;100.00;63404.56;10473174;28;20021;-66
2021/11/15 05:29:25;;;;;;;0.00;0.00;;;;;;;-145.06;100.00;63404.56;10476328;28;20032;-66
2021/11/15 05:34:25;;;;;;;0.00;0.00;;;;;;;-145.06;100.00;63404.56;10475875;28;20024;-66
2021/11/15 05:39:25;;;;;;;0.00;0.00;;;;;;;-145.06;100.00;63404.56;10485834;28;20025;-66
2021/11/15 05:44:27;;;;;;;0.00;0.00;;;;;;;-145.06;100.00;63404.56;10472077;28;20066;-66
2021/11/15 05:49:27;;;;;;;0.00;0.00;;;;;;;-145.06;100.00;63404.56;10473672;28;20781;-66
2021/11/15 05:54:27;;;;;;;0.00;0.00;;;;;;;-145.06;100.00;63404.56;10478324;28;20012;-66
2021/11/15 05:59:28;;;;;;;0.00;0.00;;;;;;;-145.06;100.00;63404.56;10482341;28;20360;-66
2021/11/15 06:04:29;;;;;;;0.00;0.00;;;;;;;-145.06;100.00;63404.56;10480672;28;20267;-66
2021/11/15 06:09:29;;;;;;;0.00;0.00;;;;;;;-145.06;100.00;63404.56;10479106;28;20079;-66
2021/11/15 06:14:30;;;;;;;0.00;0.00;;;;;;;-145.06;100.00;63404.56;10477559;28;20020;-66
2021/11/15 06:19:30;;;;;;;0.00;0.00;;;;;;;-145.06;100.00;63404.56;10467200;28;20025;-66
2021/11/15 06:24:30;;;;;;;0.00;0.00;;;;;;;-145.06;100.00;63404.56;10473548;28;20394;-66
2021/11/15 06:29:31;;;;;;;0.00;0.00;;;;;;;-145.06;100.00;63404.56;10482758;28;20107;-66
2021/11/15 06:34:31;;;;;;;0.00;0.00;;;;;;;-145.06;100.00;63404.56;10476404;28;20028;-66
2021/11/15 06:39:32;;;;;;;0.00;0.00;;;;;;;-145.06;100.00;63404.56;10482443;28;20039;-66
2021/11/15 06:44:33;;;;;;;0.00;0.00;;;;;;;-145.06;100.00;63404.56;10484023;28;20402;-66
2021/11/15 06:49:34;;;;;;;0.00;0.00;;;;;;;-145.06;100.00;63404.56;10473348;28;20023;-66
2021/11/15 06:54:35;;;;;;;0.00;0.00;;;;;;;-145.06;100.00;63404.56;10468799;28;20027;-66
2021/11/15 06:59:35;;;;;;;0.00;0.00;;;;;;;-145.06;100.00;63404.56;10492964;28;20017;-67
2021/11/15 07:04:36;;;;;;;0.00;0.00;;;;;;;-145.06;100.00;63404.56;10486830;28;20024;-66
2021/11/15 07:09:36;;;;;;;0.00;0.00;;;;;;;-145.06;100.00;63404.56;10491446;28;20013;-66
2021/11/15 07:14:37;;;;;;;0.00;0.00;;;;;;;-145.06;100.00;63404.56;10486196;28;20032;-66
2021/11/15 07:19:37;;;;;;;0.00;0.00;;;;;;;-145.06;100.00;63404.56;10486564;28;20012;-66
2021/11/15 07:24:37;;;;;;;0.00;0.00;;;;;;;-145.06;100.00;63404.56;10466377;28;20027;-66
2021/11/15 07:29:38;;;;;;;0.00;0.00;;;;;;;-145.06;100.00;63404.56;10484233;28;20118;-66
2021/11/15 07:34:41;;;;;;;0.00;0.00;;;;;;;-145.06;100.00;63404.56;10487430;28;20021;-66
2021/11/15 07:39:42;;;;;;;0.00;0.00;;;;;;;-145.06;100.00;63404.56;10486618;28;20382;-66
2021/11/15 07:44:43;;;;;;;0.00;0.00;;;;;;;-145.06;100.00;63404.56;10483132;28;20120;-66
2021/11/15 07:49:44;;;;;;;0.00;0.00;;;;;;;-145.06;100.00;63404.56;10481912;28;20020;-66
2021/11/15 07:54:46;;;;;;;0.00;0.00;;;;;;;-145.06;100.00;63404.56;10469803;28;20023;-66
2021/11/15 07:59:46;;;;;;;0.00;0.00;;;;;;;-145.06;100.00;63404.56;10453254;28;20032;-66
2021/11/15 08:04:48;;;;;;;0.00;0.00;;;;;;;-145.06;100.00;63404.56;10486289;28;20391;-66
2021/11/15 08:09:48;;;;;;;0.00;0.00;;;;;;;-145.06;100.00;63404.56;10488335;28;20036;-66
2021/11/15 08:14:49;;;;;;;0.00;0.00;;;;;;;-145.06;100.00;63404.56;10475023;28;20029;-66
2021/11/15 08:19:49;;;;;;;0.00;0.00;;;;;;;-145.06;100.00;63404.56;10474613;28;20017;-66
2021/11/15 08:24:52;;;;;;;0.00;0.00;;;;;;;-145.06;100.00;63404.56;10481586;28;20020;-66
2021/11/15 08:29:55;;;;;;;0.00;0.00;;;;;;;-145.06;100.00;63404.56;10477199;28;20436;-66
2021/11/15 08:34:58;;;;;;;0.00;0.00;;;;;;;-145.06;100.00;63404.56;10472701;28;20387;-66
2021/11/15 08:39:58;;;;;;;0.00;0.00;;;;;;;-145.06;100.00;63404.56;10480318;28;20017;-67
2021/11/15 08:45:01;;;;;;;0.00;0.00;;;;;;;-145.06;100.00;63404.56;10481165;28;20036;-67
2021/11/15 08:50:02;;;;;;;0.00;0.00;;;;;;;-145.06;100.00;63404.56;10485463;28;20321;-67
2021/11/15 08:55:03;;;;;;;0.00;0.00;;;;;;;-145.06;100.00;63404.56;10471695;28;20036;-66
2021/11/15 09:00:04;;;;;;;0.00;0.00;;;;;;;-145.06;100.00;63404.56;10482395;28;20079;-66
2021/11/15 09:05:05;;;;;;;0.00;0.00;;;;;;;-145.06;100.00;63404.56;10472570;28;20103;-66
2021/11/15 09:10:08;;;;;;;0.00;0.00;;;;;;;-145.06;100.00;63404.56;10485545;28;20025;-67
2021/11/15 09:15:13;;;;;;;0.00;0.00;;;;;;;-145.06;100.00;63404.56;10479008;28;20054;-67
2021/11/15 09:20:13;;;;;;;;;;;;;;;-145.06;100.00;63404.56;10455837;28;20063;-66
2021/11/15 09:25:14;;;;;;;0.00;0.00;;;;;;;-145.06;100.00;63404.56;10471700;28;19951;-67
2021/11/15 09:30:15;;;;;;;0.00;0.00;;;;;;;-145.06;100.00;63404.56;10482452;28;20108;-67
2021/11/15 09:35:15;;;;;;;0.00;0.00;;;;;;;-145.06;100.00;63404.56;10478151;28;20025;-67
2021/11/15 09:40:16;;;;;;;0.00;0.00;;;;;;;-145.06;100.00;63404.56;10467102;28;20134;-67
2021/11/15 09:45:16;;;;;;;0.00;0.00;;;;;;;-145.06;100.00;63404.56;10446617;28;20024;-67
2021/11/15 09:50:17;;;;;;;0.00;0.00;;;;;;;-145.06;100.00;63404.56;10446802;28;20235;-68
2021/11/15 09:55:19;;;;;;;0.00;0.00;;;;;;;-145.06;100.00;63404.56;10468100;28;20267;-67
2021/11/15 10:00:22;;;;;;;0.00;0.00;;;;;;;-145.06;100.00;63404.56;10478668;28;20365;-68
2021/11/15 10:05:23;;;;;;;0.00;0.00;;;;;;;-145.06;100.00;63404.56;10477356;28;20021;-68
2021/11/15 10:10:38;;;;;;;0.00;0.00;;;;;;;-145.06;100.00;63404.56;10441545;28;20392;-68
2021/11/15 10:15:50;;;;;;;0.00;0.00;;;;;;;-145.06;100.00;63404.56;10466604;28;20360;-68
2021/11/15 10:20:52;;;;;;;0.00;0.00;;;;;;;-145.06;100.00;63404.56;10482091;28;20021;-68
2021/11/15 10:25:57;;;;;;;0.00;0.00;;;;;;;-145.06;100.00;63404.56;10478233;28;20150;-68
2021/11/15 10:30:58;;;;;;;0.00;0.00;;;;;;;-145.06;100.00;63404.56;10476941;28;20055;-68
2021/11/15 10:35:58;;;;;;;0.00;0.00;;;;;;;-145.06;100.00;63404.56;10480646;28;20478;-67
2021/11/15 10:41:20;;;;;;;0.00;0.00;;;;;;;-145.06;100.00;63404.56;10474944;28;20029;-68
2021/11/15 10:46:35;;;;;;;0.00;0.00;;;;;;;-145.06;100.00;63404.56;10467637;28;20494;-68
2021/11/15 10:51:54;;;;;;;;;;;;;;;-145.06;100.00;63404.56;10479764;28;20024;-68
2021/11/15 10:56:59;;;;;;;0.00;0.00;;;;;;;-145.06;100.00;63404.56;10481535;28;19912;-68
2021/11/15 11:01:59;;;;;;;;;;;;;;;-145.06;100.00;63404.56;10474470;28;20022;-68
2021/11/15 11:07:04;;;;;;;0.00;0.00;;;;;;;-145.06;100.00;63404.56;10482854;28;20003;-68
2021/11/15 11:12:14;;;;;;;;;;;;;;;-145.06;100.00;63404.56;10476275;28;20028;-68
2021/11/15 11:17:14;;;;;;;0.00;0.00;;;;;;;-145.06;100.00;63404.56;10469862;28;20019;-68
2021/11/15 11:27:27;;;;;;;0.00;0.00;;;;;;;-145.06;100.00;63404.56;10484254;28;20282;-68
2021/11/15 11:32:29;;;;;;;0.00;0.00;;;;;;;-145.06;100.00;63404.56;10477577;28;20025;-68
2021/11/15 11:37:30;;;;;;;0.00;0.00;;;;;;;-145.06;100.00;63404.56;10483923;28;20119;-68
2021/11/15 11:42:30;;;;;;;0.00;0.00;;;;;;;-145.06;100.00;63404.56;10484644;28;20501;-68
2021/11/15 11:47:31;;;;;;;0.00;0.00;;;;;;;-145.06;100.00;63404.56;10490178;28;20082;-68
2021/11/15 11:52:39;;;;;;;0.00;0.00;;;;;;;-145.06;100.00;63404.56;10475307;28;20020;-68
2021/11/15 11:57:39;;;;;;;0.00;0.00;;;;;;;-145.06;100.00;63404.56;10481733;28;20047;-68
2021/11/15 12:02:41;;;;;;;0.00;0.00;;;;;;;-145.06;100.00;63404.56;10484239;28;20032;-68
2021/11/15 12:07:54;;;;;;;0.00;0.00;;;;;;;-145.06;100.00;63404.56;10474620;28;20025;-68
2021/11/15 12:12:56;;;;;;;0.00;0.00;;;;;;;-145.06;100.00;63404.56;10477840;28;20027;-68
2021/11/15 12:18:19;;;;;;;0.00;0.00;;;;;;;-145.06;100.00;63404.56;10485679;28;20113;-68
2021/11/15 12:23:19;;;;;;;0.00;0.00;;;;;;;-145.06;100.00;63404.56;10478255;28;20021;-68
2021/11/15 12:28:29;;;;;;;0.00;0.00;;;;;;;-145.06;100.00;63404.56;10478850;28;20075;-68
2021/11/15 12:33:33;;;;;;;0.00;0.00;;;;;;;-145.06;100.00;63404.56;10481594;28;20030;-67
2021/11/15 12:38:46;;;;;;;0.00;0.00;;;;;;;-145.06;100.00;63404.56;10487545;28;20435;-68
2021/11/15 12:43:49;;;;;;;0.00;0.00;;;;;;;-145.06;100.00;63404.56;10454202;28;20115;-68
2021/11/15 12:48:52;;;;;;;0.00;0.00;;;;;;;-145.06;100.00;63404.56;11265756;22;20047;-93
2021/11/15 12:53:54;;;;;;;0.00;0.00;;;;;;;-145.06;100.00;63404.56;10571210;27;20043;-92
2021/11/15 12:58:55;;;;;;;0.00;0.00;;;;;;;-145.06;100.00;63404.56;10566385;27;20471;-92
2021/11/15 13:03:55;;;;;;;0.00;0.00;;;;;;;-145.06;100.00;63404.56;10537519;22;20032;-69
2021/11/15 13:08:56;;;;;;;0.00;0.00;;;;;;;-145.06;100.00;63404.56;10510185;28;20100;-69
2021/11/15 13:13:56;;;;;;;0.00;0.00;;;;;;;-145.06;100.00;63404.56;10491141;28;20031;-69
2021/11/15 13:18:58;;;;;;;0.00;0.00;;;;;;;-145.06;100.00;63404.56;10504493;28;20035;-70
2021/11/15 13:23:58;;;;;;;0.00;0.00;;;;;;;-145.06;100.00;63404.56;10510740;28;20024;-69
2021/11/15 13:28:59;;;;;;;0.00;0.00;;;;;;;-145.06;100.00;63404.56;10500451;28;20024;-69
2021/11/15 13:33:59;;;;;;;0.00;0.00;;;;;;;-145.06;100.00;63404.56;10503515;28;20028;-70
2021/11/15 13:38:59;;;;;;;0.00;0.00;;;;;;;-145.06;100.00;63404.56;10512716;28;20016;-70
2021/11/15 13:44:00;;;;;;;0.00;0.00;;;;;;;-145.06;100.00;63404.56;10509296;28;20320;-70
2021/11/15 13:49:04;;;;;;;0.00;0.00;;;;;;;-145.06;100.00;63404.56;10518931;28;20421;-70
2021/11/15 13:54:05;;;;;;;0.00;0.00;;;;;;;-145.06;100.00;63404.56;10507893;28;20032;-70
2021/11/15 13:59:10;;;;;;;0.00;0.00;;;;;;;-145.06;100.00;63404.56;10511166;28;20394;-70
2021/11/15 14:04:11;;;;;;;0.00;0.00;;;;;;;-145.06;100.00;63404.56;10502286;28;20035;-70
2021/11/15 14:09:12;;;;;;;0.00;0.00;;;;;;;-145.06;100.00;63404.56;10450461;28;20033;-70
2021/11/15 14:14:12;;;;;;;0.00;0.00;;;;;;;-145.06;100.00;63404.56;10481744;28;20100;-69
2021/11/15 14:19:13;;;;;;;0.00;0.00;;;;;;;-145.06;100.00;63404.56;10514557;28;20036;-70
2021/11/15 14:24:13;;;;;;;0.00;0.00;;;;;;;-145.06;100.00;63404.56;10472634;28;20037;-70
2021/11/15 14:29:13;;;;;;;0.00;0.00;;;;;;;-145.06;100.00;63404.56;10496339;28;20254;-69
2021/11/15 14:34:14;;;;;;;0.00;0.00;;;;;;;-145.06;100.00;63404.56;10477751;28;20438;-69
2021/11/15 14:39:14;;;;;;;0.00;0.00;;;;;;;-145.06;100.00;63404.56;10492889;28;20024;-69
2021/11/15 14:44:15;;;;;;;0.00;0.00;;;;;;;-145.06;100.00;63404.56;10505484;28;20024;-70
2021/11/15 14:49:16;;;;;;;0.00;0.00;;;;;;;-145.06;100.00;63404.56;10510486;28;20318;-69
2021/11/15 14:54:16;;;;;;;0.00;0.00;;;;;;;-145.06;100.00;63404.56;10516304;28;20485;-69
2021/11/15 14:59:16;;;;;;;0.00;0.00;;;;;;;-145.06;100.00;63404.56;10499052;28;20027;-69
2021/11/15 15:04:18;;;;;;;0.00;0.00;;;;;;;-145.06;100.00;63404.56;10503077;28;20051;-69
2021/11/15 15:09:22;;;;;;;0.00;0.00;;;;;;;-145.06;100.00;63404.56;10478941;28;20376;-69
2021/11/15 15:14:23;;;;;;;0.00;0.00;;;;;;;-145.06;100.00;63404.56;10473271;28;20023;-69
2021/11/15 15:19:29;;;;;;;0.00;0.00;;;;;;;-145.06;100.00;63404.56;10483089;28;20441;-69
2021/11/15 15:24:30;;;;;;;0.00;0.00;;;;;;;-145.06;100.00;63404.56;10494390;28;20025;-69
2021/11/15 15:29:31;;;;;;;0.00;0.00;;;;;;;-145.06;100.00;63404.56;10455390;28;20029;-69
2021/11/15 15:34:31;;;;;;;0.00;0.00;;;;;;;-145.06;100.00;63404.56;10455780;28;20466;-69
2021/11/15 15:39:32;;;;;;;0.00;0.00;;;;;;;-145.06;100.00;63404.56;10485693;28;20036;-69
2021/11/15 15:44:32;;;;;;;0.00;0.00;;;;;;;-145.06;100.00;63404.56;10495860;28;20035;-69
2021/11/15 15:49:33;;;;;;;0.00;0.00;;;;;;;-145.06;100.00;63404.56;10477220;28;20056;-70
2021/11/15 15:54:34;;;;;;;0.00;0.00;;;;;;;-145.06;100.00;63404.56;10477243;28;20021;-69
2021/11/15 15:59:34;;;;;;;0.00;0.00;;;;;;;-145.06;100.00;63404.56;10495033;28;20050;-69
2021/11/15 16:19:59;;;;;;;0.00;0.00;;;;;;;-145.06;100.00;63404.56;10485585;28;20554;-70
2021/11/15 16:25:00;;;;;;;0.00;0.00;;;;;;;-145.06;100.00;63404.56;10452538;28;20180;-69
2021/11/15 16:30:00;;;;;;;0.00;0.00;;;;;;;-145.06;100.00;63404.56;10451724;28;20132;-70
2021/11/15 16:35:01;;;;;;;0.00;0.00;;;;;;;-145.06;100.00;63404.56;10452463;28;20480;-70
2021/11/15 16:40:03;;;;;;;0.00;0.00;;;;;;;-145.06;100.00;63404.56;10504547;28;20345;-70
2021/11/15 16:45:06;;;;;;;0.00;0.00;;;;;;;-145.06;100.00;63404.56;10517206;28;20032;-70
2021/11/15 16:50:07;;;;;;;0.00;0.00;;;;;;;-145.06;100.00;63404.56;10513151;28;20446;-70
2021/11/15 16:55:08;;;;;;;0.00;0.00;;;;;;;-145.06;100.00;63404.56;10483204;28;20066;-70
2021/11/15 17:00:10;;;;;;;0.00;0.00;;;;;;;-145.06;100.00;63404.56;10502324;28;20047;-70
2021/11/15 17:05:11;;;;;;;0.10;0.10;;;;;;;-145.06;100.00;63404.56;10493748;28;20021;-69
2021/11/15 17:10:12;;;;;;;0.00;0.00;;;;;;;-145.06;100.00;63404.56;10515191;28;20028;-70
2021/11/15 17:15:14;;;;;;;0.00;0.00;;;;;;;-145.06;100.00;63404.56;10495038;28;20025;-70
2021/11/15 17:20:15;;;;;;;0.00;0.00;;;;;;;-145.06;100.00;63404.56;10505441;28;20469;-70
2021/11/15 17:25:15;;;;;;;0.00;0.00;;;;;;;-145.06;100.00;63404.56;10523014;28;20024;-69
2021/11/15 17:30:16;;;;;;;0.00;0.00;;;;;;;-145.06;100.00;63404.56;10496768;28;20033;-70
2021/11/15 17:35:16;;;;;;;0.00;0.00;;;;;;;-145.06;100.00;63404.56;10496213;28;20021;-70
2021/11/15 17:40:17;;;;;;;0.00;0.00;;;;;;;-145.06;100.00;63404.56;10489689;28;20030;-70
2021/11/15 17:45:17;;;;;;;0.00;0.00;;;;;;;-145.06;100.00;63404.56;10530710;28;20296;-70
2021/11/15 17:50:19;;;;;;;0.00;0.00;;;;;;;-145.06;100.00;63404.56;10496483;28;20100;-69
2021/11/15 18:00:36;;;;;;;0.00;0.00;;;;;;;-145.06;100.00;63404.56;10507710;28;20030;-69
2021/11/15 18:05:37;;;;;;;0.00;0.00;;;;;;;-145.06;100.00;63404.56;10511037;28;20139;-69
2021/11/15 18:10:38;;;;;;;0.00;0.00;;;;;;;-145.06;100.00;63404.56;10508256;28;20059;-69
2021/11/15 18:15:40;;;;;;;0.00;0.00;;;;;;;-145.06;100.00;63404.56;10487864;28;20028;-70
2021/11/15 18:20:43;;;;;;;0.00;0.00;;;;;;;-145.06;100.00;63404.56;10487769;28;20020;-69
2021/11/15 18:25:43;;;;;;;0.00;0.00;;;;;;;-145.06;100.00;63404.56;10463731;28;20025;-69
2021/11/15 18:30:43;;;;;;;0.00;0.00;;;;;;;-145.06;100.00;63404.56;10447919;28;20017;-69
2021/11/15 18:35:44;;;;;;;0.00;0.00;;;;;;;-145.06;100.00;63404.56;10448030;28;20263;-70
2021/11/15 18:40:45;;;;;;;0.00;0.00;;;;;;;-145.06;100.00;63404.56;10522980;28;20481;-69
2021/11/15 18:45:46;;;;;;;0.00;0.00;;;;;;;-145.06;100.00;63404.56;10513139;28;20100;-69
2021/11/15 18:50:47;;;;;;;0.00;0.00;;;;;;;-145.06;100.00;63404.56;10534535;28;20047;-69
2021/11/15 18:55:50;;;;;;;0.00;0.00;;;;;;;-145.06;100.00;63404.56;10544909;28;20443;-70
2021/11/15 19:00:51;;;;;;;0.00;0.00;;;;;;;-145.06;100.00;63404.56;10526747;28;20115;-69
2021/11/15 19:05:59;;;;;;;0.00;0.00;;;;;;;-145.06;100.00;63404.56;10552613;22;20507;-70
2021/11/15 19:11:11;;;;;;;0.00;0.00;;;;;;;-145.06;100.00;63404.56;10553814;28;20028;-70
2021/11/15 19:16:15;;;;;;;0.00;0.00;;;;;;;-145.06;100.00;63404.56;10529537;28;20018;-70
2021/11/15 19:21:18;;;;;;;0.05;0.05;;;;;;;-145.06;100.00;63404.56;10529011;28;20019;-69
2021/11/15 19:26:19;;;;;;;0.00;0.00;;;;;;;-145.06;100.00;63404.56;10498020;28;20478;-69
2021/11/15 19:31:21;;;;;;;0.00;0.00;;;;;;;-145.06;100.00;63404.56;10505144;28;20048;-70
2021/11/15 19:36:21;;;;;;;0.00;0.00;;;;;;;-145.06;100.00;63404.56;10505627;28;20070;-70
2021/11/15 19:41:22;;;;;;;0.00;0.00;;;;;;;-145.06;100.00;63404.56;10544106;28;20028;-69
2021/11/15 19:46:23;;;;;;;0.00;0.00;;;;;;;-145.06;100.00;63404.56;10528980;28;20425;-69
2021/11/15 19:51:25;;;;;;;0.00;0.00;;;;;;;-145.06;100.00;63404.56;10546453;28;20073;-69
2021/11/15 19:56:25;;;;;;;0.00;0.00;;;;;;;-145.06;100.00;63404.56;10547014;28;20390;-70
2021/11/15 20:01:26;;;;;;;0.00;0.00;;;;;;;-145.06;100.00;63404.56;10527588;28;20028;-69
2021/11/15 20:06:27;;;;;;;0.00;0.00;;;;;;;-145.06;100.00;63404.56;10532985;28;20525;-70
2021/11/15 20:11:28;;;;;;;0.00;0.00;;;;;;;-145.06;100.00;63404.56;10519074;28;20042;-70
2021/11/15 20:16:28;;;;;;;0.00;0.00;;;;;;;-145.06;100.00;63404.56;10539672;28;20030;-69
2021/11/15 20:21:29;;;;;;;0.00;0.00;;;;;;;-145.06;100.00;63404.56;10539559;28;20281;-69
2021/11/15 20:26:29;;;;;;;0.00;0.00;;;;;;;-145.06;100.00;63404.56;10489291;28;20027;-69
2021/11/15 20:31:29;;;;;;;0.00;0.00;;;;;;;-145.06;100.00;63404.56;10498122;28;20029;-69
2021/11/15 20:36:31;;;;;;;0.00;0.00;;;;;;;-145.06;100.00;63404.56;10497859;28;20315;-71
2021/11/15 20:41:32;;;;;;;0.00;0.00;;;;;;;-145.06;100.00;63404.56;10559683;28;20023;-69
2021/11/15 20:46:32;;;;;;;0.00;0.00;;;;;;;-145.06;100.00;63404.56;10581497;28;20020;-69
2021/11/15 20:51:34;;;;;;;0.00;0.00;;;;;;;-145.06;100.00;63404.56;10580445;28;20114;-68
2021/11/15 20:56:35;;;;;;;0.00;0.00;;;;;;;-145.06;100.00;63404.56;10580907;28;20093;-69
2021/11/15 21:01:35;;;;;;;0.00;0.00;;;;;;;-145.06;100.00;63404.56;10579870;28;20019;-69
2021/11/15 21:06:35;;;;;;;0.00;0.00;;;;;;;-145.06;100.00;63404.56;10546541;28;20024;-69
2021/11/15 21:11:36;;;;;;;0.00;0.00;;;;;;;-145.06;100.00;63404.56;10528797;28;20028;-68
2021/11/15 21:16:37;;;;;;;0.00;0.00;;;;;;;-145.06;100.00;63404.56;10514736;28;20043;-69
2021/11/15 21:21:41;;;;;;;0.00;0.00;;;;;;;-145.06;100.00;63404.56;10498273;28;20032;-69
2021/11/15 21:26:42;;;;;;;;;;;;;;;-145.06;100.00;63404.56;10495351;28;20500;-69
2021/11/15 21:31:44;;;;;;;0.00;0.00;;;;;;;-145.06;100.00;63404.56;10494298;28;20024;-69
2021/11/15 21:36:44;;;;;;;0.00;0.00;;;;;;;-145.06;100.00;63404.56;10494544;28;20020;-68
2021/11/15 21:41:45;;;;;;;0.00;0.00;;;;;;;-145.06;100.00;63404.56;10493282;28;20055;-70
2021/11/15 21:46:45;;;;;;;0.00;0.00;;;;;;;-145.06;100.00;63404.56;10494695;28;20328;-69
2021/11/15 21:51:46;;;;;;;0.00;0.00;;;;;;;-145.06;100.00;63404.56;10492338;28;20103;-70
2021/11/15 21:56:46;;;;;;;0.00;0.00;;;;;;;-145.06;100.00;63404.56;10490519;28;20471;-70
2021/11/15 22:01:46;;;;;;;0.00;0.00;;;;;;;-145.06;100.00;63404.56;10491794;28;20768;-70
2021/11/15 22:06:47;;;;;;;0.00;0.00;;;;;;;-145.06;100.00;63404.56;10491529;28;20476;-69
2021/11/15 22:11:48;;;;;;;0.00;0.00;;;;;;;-145.06;100.00;63404.56;10491356;28;20126;-69
2021/11/15 22:16:49;;;;;;;0.00;0.00;;;;;;;-145.06;100.00;63404.56;10483108;28;20104;-70
2021/11/15 22:21:50;;;;;;;0.00;0.00;;;;;;;-145.06;100.00;63404.56;10500714;28;20455;-69
2021/11/15 22:26:50;;;;;;;0.00;0.00;;;;;;;-145.06;100.00;63404.56;10504366;28;20065;-69
2021/11/15 22:31:51;;;;;;;0.00;0.00;;;;;;;-145.06;100.00;63404.56;10514470;28;20020;-69
2021/11/15 22:36:54;;;;;;;0.00;0.00;;;;;;;-145.06;100.00;63404.56;10516894;28;20023;-71
2021/11/15 22:41:54;;;;;;;0.00;0.00;;;;;;;-145.06;100.00;63404.56;10525534;28;20397;-70
2021/11/15 22:46:54;;;;;;;0.00;0.00;;;;;;;-145.06;100.00;63404.56;10502048;28;20021;-70
2021/11/15 22:51:57;;;;;;;0.00;0.00;;;;;;;-145.06;100.00;63404.56;10490509;28;20320;-69
2021/11/15 22:56:57;;;;;;;0.00;0.00;;;;;;;-145.06;100.00;63404.56;10501367;28;20017;-69
2021/11/15 23:01:58;;;;;;;0.00;0.00;;;;;;;-145.06;100.00;63404.56;10496608;28;20016;-69